sensor_id;sensor_type;location;lat;lon;timestamp;P1;durP1;ratioP1;P2;durP2;ratioP2
21095;SDS011;10706;49.036;12.112;2023-03-03T00:01:36;32.27;;;14.93;;
21095;SDS011;10706;49.036;12.112;2023-03-03T00:04:02;33.43;;;13.53;;
21095;SDS011;10706;49.036;12.112;2023-03-03T00:06:28;37.13;;;15.90;;
21095;SDS011;10706;49.036;12.112;2023-03-03T00:08:54;40.40;;;15.53;;
21095;SDS011;10706;49.036;12.112;2023-03-03T00:11:20;35.60;;;15.33;;
21095;SDS011;10706;49.036;12.112;2023-03-03T00:13:47;35.50;;;15.00;;
21095;SDS011;10706;49.036;12.112;2023-03-03T00:18:55;35.90;;;14.30;;
21095;SDS011;10706;49.036;12.112;2023-03-03T00:21:26;31.83;;;13.47;;
21095;SDS011;10706;49.036;12.112;2023-03-03T00:24:13;35.90;;;15.10;;
21095;SDS011;10706;49.036;12.112;2023-03-03T00:26:56;34.87;;;13.80;;
21095;SDS011;10706;49.036;12.112;2023-03-03T00:29:34;36.90;;;15.20;;
21095;SDS011;10706;49.036;12.112;2023-03-03T00:34:42;37.73;;;14.13;;
21095;SDS011;10706;49.036;12.112;2023-03-03T00:37:22;37.07;;;14.90;;
21095;SDS011;10706;49.036;12.112;2023-03-03T00:39:52;34.67;;;13.10;;
21095;SDS011;10706;49.036;12.112;2023-03-03T00:42:18;40.23;;;14.47;;
21095;SDS011;10706;49.036;12.112;2023-03-03T00:44:44;36.83;;;14.47;;
21095;SDS011;10706;49.036;12.112;2023-03-03T00:47:26;37.83;;;15.00;;
21095;SDS011;10706;49.036;12.112;2023-03-03T00:52:34;34.03;;;14.77;;
21095;SDS011;10706;49.036;12.112;2023-03-03T00:55:17;35.80;;;14.07;;
21095;SDS011;10706;49.036;12.112;2023-03-03T00:57:43;35.03;;;14.23;;
21095;SDS011;10706;49.036;12.112;2023-03-03T01:00:09;37.87;;;14.13;;
21095;SDS011;10706;49.036;12.112;2023-03-03T01:02:36;36.80;;;14.47;;
21095;SDS011;10706;49.036;12.112;2023-03-03T01:05:02;37.30;;;14.33;;
21095;SDS011;10706;49.036;12.112;2023-03-03T01:07:28;39.57;;;15.00;;
21095;SDS011;10706;49.036;12.112;2023-03-03T01:09:54;35.13;;;13.47;;
21095;SDS011;10706;49.036;12.112;2023-03-03T01:12:19;40.70;;;14.73;;
21095;SDS011;10706;49.036;12.112;2023-03-03T01:14:45;37.63;;;15.03;;
21095;SDS011;10706;49.036;12.112;2023-03-03T01:17:13;36.43;;;14.50;;
21095;SDS011;10706;49.036;12.112;2023-03-03T01:19:38;38.57;;;14.27;;
21095;SDS011;10706;49.036;12.112;2023-03-03T01:22:04;38.17;;;15.07;;
21095;SDS011;10706;49.036;12.112;2023-03-03T01:24:30;33.60;;;14.40;;
21095;SDS011;10706;49.036;12.112;2023-03-03T01:26:56;38.57;;;15.10;;
21095;SDS011;10706;49.036;12.112;2023-03-03T01:29:21;35.27;;;14.97;;
21095;SDS011;10706;49.036;12.112;2023-03-03T01:31:47;33.10;;;14.30;;
21095;SDS011;10706;49.036;12.112;2023-03-03T01:34:13;38.83;;;14.87;;
21095;SDS011;10706;49.036;12.112;2023-03-03T01:36:38;32.07;;;13.33;;
21095;SDS011;10706;49.036;12.112;2023-03-03T01:39:04;34.83;;;15.20;;
21095;SDS011;10706;49.036;12.112;2023-03-03T01:41:30;38.07;;;14.37;;
21095;SDS011;10706;49.036;12.112;2023-03-03T01:43:57;35.70;;;14.83;;
21095;SDS011;10706;49.036;12.112;2023-03-03T01:46:27;32.97;;;14.33;;
21095;SDS011;10706;49.036;12.112;2023-03-03T01:56:24;34.83;;;13.80;;
21095;SDS011;10706;49.036;12.112;2023-03-03T01:59:08;35.83;;;13.63;;
21095;SDS011;10706;49.036;12.112;2023-03-03T02:01:57;34.70;;;14.03;;
21095;SDS011;10706;49.036;12.112;2023-03-03T02:04:23;37.27;;;13.97;;
21095;SDS011;10706;49.036;12.112;2023-03-03T02:06:51;33.93;;;14.33;;
21095;SDS011;10706;49.036;12.112;2023-03-03T02:09:30;40.17;;;15.43;;
21095;SDS011;10706;49.036;12.112;2023-03-03T02:12:30;44.83;;;13.80;;
21095;SDS011;10706;49.036;12.112;2023-03-03T02:15:21;34.87;;;13.47;;
21095;SDS011;10706;49.036;12.112;2023-03-03T02:17:52;35.90;;;13.17;;
21095;SDS011;10706;49.036;12.112;2023-03-03T02:23:23;32.10;;;12.73;;
21095;SDS011;10706;49.036;12.112;2023-03-03T02:26:33;38.90;;;15.17;;
21095;SDS011;10706;49.036;12.112;2023-03-03T02:29:04;32.27;;;12.80;;
21095;SDS011;10706;49.036;12.112;2023-03-03T02:31:31;32.47;;;13.40;;
21095;SDS011;10706;49.036;12.112;2023-03-03T02:33:57;33.70;;;13.40;;
21095;SDS011;10706;49.036;12.112;2023-03-03T02:36:24;38.67;;;13.63;;
21095;SDS011;10706;49.036;12.112;2023-03-03T02:44:27;38.73;;;14.73;;
21095;SDS011;10706;49.036;12.112;2023-03-03T02:46:56;34.23;;;12.83;;
21095;SDS011;10706;49.036;12.112;2023-03-03T02:49:24;34.90;;;13.33;;
21095;SDS011;10706;49.036;12.112;2023-03-03T02:51:52;38.40;;;12.77;;
21095;SDS011;10706;49.036;12.112;2023-03-03T02:54:19;40.87;;;13.33;;
21095;SDS011;10706;49.036;12.112;2023-03-03T02:56:48;34.53;;;14.70;;
21095;SDS011;10706;49.036;12.112;2023-03-03T02:59:14;37.47;;;14.77;;
21095;SDS011;10706;49.036;12.112;2023-03-03T03:01:41;29.50;;;12.57;;
21095;SDS011;10706;49.036;12.112;2023-03-03T03:04:08;32.77;;;13.47;;
21095;SDS011;10706;49.036;12.112;2023-03-03T03:06:46;34.17;;;13.67;;
21095;SDS011;10706;49.036;12.112;2023-03-03T03:09:12;34.77;;;14.47;;
21095;SDS011;10706;49.036;12.112;2023-03-03T03:11:39;30.63;;;13.90;;
21095;SDS011;10706;49.036;12.112;2023-03-03T03:14:06;36.57;;;14.60;;
21095;SDS011;10706;49.036;12.112;2023-03-03T03:16:34;36.73;;;14.27;;
21095;SDS011;10706;49.036;12.112;2023-03-03T03:19:00;36.30;;;15.63;;
21095;SDS011;10706;49.036;12.112;2023-03-03T03:21:27;36.03;;;13.50;;
21095;SDS011;10706;49.036;12.112;2023-03-03T03:23:54;32.97;;;13.83;;
21095;SDS011;10706;49.036;12.112;2023-03-03T03:26:20;36.00;;;13.63;;
21095;SDS011;10706;49.036;12.112;2023-03-03T03:28:47;35.93;;;13.50;;
21095;SDS011;10706;49.036;12.112;2023-03-03T03:31:14;37.63;;;14.83;;
21095;SDS011;10706;49.036;12.112;2023-03-03T03:33:40;31.80;;;12.37;;
21095;SDS011;10706;49.036;12.112;2023-03-03T03:36:06;32.33;;;13.60;;
21095;SDS011;10706;49.036;12.112;2023-03-03T03:38:33;29.97;;;12.10;;
21095;SDS011;10706;49.036;12.112;2023-03-03T03:41:00;33.67;;;12.90;;
21095;SDS011;10706;49.036;12.112;2023-03-03T03:43:27;34.23;;;13.50;;
21095;SDS011;10706;49.036;12.112;2023-03-03T03:45:53;30.67;;;12.57;;
21095;SDS011;10706;49.036;12.112;2023-03-03T03:48:19;33.20;;;13.47;;
21095;SDS011;10706;49.036;12.112;2023-03-03T03:50:48;36.03;;;12.40;;
21095;SDS011;10706;49.036;12.112;2023-03-03T03:53:15;35.90;;;13.30;;
21095;SDS011;10706;49.036;12.112;2023-03-03T03:55:42;30.47;;;12.37;;
21095;SDS011;10706;49.036;12.112;2023-03-03T03:58:15;29.80;;;12.70;;
21095;SDS011;10706;49.036;12.112;2023-03-03T04:00:43;27.23;;;11.67;;
21095;SDS011;10706;49.036;12.112;2023-03-03T04:03:10;34.77;;;13.63;;
21095;SDS011;10706;49.036;12.112;2023-03-03T04:05:38;31.77;;;12.97;;
21095;SDS011;10706;49.036;12.112;2023-03-03T04:08:04;30.13;;;12.77;;
21095;SDS011;10706;49.036;12.112;2023-03-03T04:10:30;31.90;;;13.43;;
21095;SDS011;10706;49.036;12.112;2023-03-03T04:12:56;35.67;;;14.63;;
21095;SDS011;10706;49.036;12.112;2023-03-03T04:15:21;32.90;;;13.23;;
21095;SDS011;10706;49.036;12.112;2023-03-03T04:17:47;35.17;;;14.10;;
21095;SDS011;10706;49.036;12.112;2023-03-03T04:20:13;34.30;;;13.90;;
21095;SDS011;10706;49.036;12.112;2023-03-03T04:22:40;34.67;;;13.13;;
21095;SDS011;10706;49.036;12.112;2023-03-03T04:25:07;35.30;;;13.30;;
21095;SDS011;10706;49.036;12.112;2023-03-03T04:27:36;35.70;;;14.37;;
21095;SDS011;10706;49.036;12.112;2023-03-03T04:30:03;45.53;;;19.93;;
21095;SDS011;10706;49.036;12.112;2023-03-03T04:32:30;57.47;;;23.20;;
21095;SDS011;10706;49.036;12.112;2023-03-03T04:35:00;36.00;;;16.67;;
21095;SDS011;10706;49.036;12.112;2023-03-03T04:37:26;35.53;;;13.73;;
21095;SDS011;10706;49.036;12.112;2023-03-03T04:39:52;34.63;;;14.53;;
21095;SDS011;10706;49.036;12.112;2023-03-03T04:42:18;38.93;;;13.43;;
21095;SDS011;10706;49.036;12.112;2023-03-03T04:44:44;35.67;;;13.70;;
21095;SDS011;10706;49.036;12.112;2023-03-03T04:47:09;30.47;;;12.23;;
21095;SDS011;10706;49.036;12.112;2023-03-03T04:49:35;29.73;;;12.17;;
21095;SDS011;10706;49.036;12.112;2023-03-03T04:52:01;38.13;;;13.33;;
21095;SDS011;10706;49.036;12.112;2023-03-03T04:54:27;36.20;;;13.23;;
21095;SDS011;10706;49.036;12.112;2023-03-03T04:56:52;33.70;;;13.13;;
21095;SDS011;10706;49.036;12.112;2023-03-03T04:59:18;36.37;;;16.90;;
21095;SDS011;10706;49.036;12.112;2023-03-03T05:01:44;91.13;;;33.63;;
21095;SDS011;10706;49.036;12.112;2023-03-03T05:04:10;52.13;;;18.73;;
21095;SDS011;10706;49.036;12.112;2023-03-03T05:06:36;94.67;;;33.03;;
21095;SDS011;10706;49.036;12.112;2023-03-03T05:09:02;80.13;;;29.13;;
21095;SDS011;10706;49.036;12.112;2023-03-03T05:11:28;42.33;;;16.27;;
21095;SDS011;10706;49.036;12.112;2023-03-03T05:13:54;42.07;;;17.47;;
21095;SDS011;10706;49.036;12.112;2023-03-03T05:16:20;31.50;;;13.70;;
21095;SDS011;10706;49.036;12.112;2023-03-03T05:18:45;29.27;;;11.63;;
21095;SDS011;10706;49.036;12.112;2023-03-03T05:21:12;42.00;;;14.97;;
21095;SDS011;10706;49.036;12.112;2023-03-03T05:23:38;31.30;;;12.57;;
21095;SDS011;10706;49.036;12.112;2023-03-03T05:26:04;31.10;;;12.70;;
21095;SDS011;10706;49.036;12.112;2023-03-03T05:28:31;29.00;;;13.20;;
21095;SDS011;10706;49.036;12.112;2023-03-03T05:30:57;30.43;;;12.83;;
21095;SDS011;10706;49.036;12.112;2023-03-03T05:33:23;34.37;;;12.50;;
21095;SDS011;10706;49.036;12.112;2023-03-03T05:35:53;37.20;;;13.70;;
21095;SDS011;10706;49.036;12.112;2023-03-03T05:38:20;36.47;;;13.47;;
21095;SDS011;10706;49.036;12.112;2023-03-03T05:40:46;32.57;;;12.70;;
21095;SDS011;10706;49.036;12.112;2023-03-03T05:43:12;27.40;;;12.33;;
21095;SDS011;10706;49.036;12.112;2023-03-03T05:45:37;36.17;;;13.77;;
21095;SDS011;10706;49.036;12.112;2023-03-03T05:48:03;33.57;;;13.17;;
21095;SDS011;10706;49.036;12.112;2023-03-03T05:50:29;32.93;;;12.47;;
21095;SDS011;10706;49.036;12.112;2023-03-03T05:52:56;31.77;;;11.37;;
21095;SDS011;10706;49.036;12.112;2023-03-03T05:55:22;27.93;;;11.50;;
21095;SDS011;10706;49.036;12.112;2023-03-03T05:57:48;33.27;;;12.57;;
21095;SDS011;10706;49.036;12.112;2023-03-03T06:00:13;30.23;;;11.57;;
21095;SDS011;10706;49.036;12.112;2023-03-03T06:02:40;30.00;;;12.53;;
21095;SDS011;10706;49.036;12.112;2023-03-03T06:05:06;31.33;;;13.47;;
21095;SDS011;10706;49.036;12.112;2023-03-03T06:07:33;36.43;;;13.13;;
21095;SDS011;10706;49.036;12.112;2023-03-03T06:09:59;32.20;;;12.53;;
21095;SDS011;10706;49.036;12.112;2023-03-03T06:12:25;31.53;;;11.83;;
21095;SDS011;10706;49.036;12.112;2023-03-03T06:14:51;36.10;;;13.90;;
21095;SDS011;10706;49.036;12.112;2023-03-03T06:17:17;32.43;;;13.00;;
21095;SDS011;10706;49.036;12.112;2023-03-03T06:19:42;58.30;;;19.30;;
21095;SDS011;10706;49.036;12.112;2023-03-03T06:22:08;88.23;;;29.27;;
21095;SDS011;10706;49.036;12.112;2023-03-03T06:24:34;71.00;;;23.03;;
21095;SDS011;10706;49.036;12.112;2023-03-03T06:27:00;100.93;;;34.00;;
21095;SDS011;10706;49.036;12.112;2023-03-03T06:29:26;73.00;;;29.40;;
21095;SDS011;10706;49.036;12.112;2023-03-03T06:31:53;39.13;;;17.57;;
21095;SDS011;10706;49.036;12.112;2023-03-03T06:34:19;40.53;;;17.10;;
21095;SDS011;10706;49.036;12.112;2023-03-03T06:36:45;43.97;;;19.13;;
21095;SDS011;10706;49.036;12.112;2023-03-03T06:39:11;101.27;;;36.63;;
21095;SDS011;10706;49.036;12.112;2023-03-03T06:41:36;42.47;;;15.90;;
21095;SDS011;10706;49.036;12.112;2023-03-03T06:44:03;40.13;;;17.63;;
21095;SDS011;10706;49.036;12.112;2023-03-03T06:46:31;33.40;;;15.53;;
21095;SDS011;10706;49.036;12.112;2023-03-03T06:52:25;31.27;;;11.97;;
21095;SDS011;10706;49.036;12.112;2023-03-03T07:07:06;32.53;;;11.53;;
21095;SDS011;10706;49.036;12.112;2023-03-03T07:12:46;29.97;;;11.60;;
21095;SDS011;10706;49.036;12.112;2023-03-03T07:19:01;41.53;;;12.47;;
21095;SDS011;10706;49.036;12.112;2023-03-03T07:22:21;35.03;;;13.00;;
21095;SDS011;10706;49.036;12.112;2023-03-03T07:24:56;36.70;;;13.97;;
21095;SDS011;10706;49.036;12.112;2023-03-03T07:27:29;34.30;;;12.77;;
21095;SDS011;10706;49.036;12.112;2023-03-03T07:32:54;37.50;;;12.87;;
21095;SDS011;10706;49.036;12.112;2023-03-03T07:38:02;32.40;;;12.47;;
21095;SDS011;10706;49.036;12.112;2023-03-03T07:40:50;36.97;;;12.90;;
21095;SDS011;10706;49.036;12.112;2023-03-03T07:48:53;30.60;;;12.47;;
21095;SDS011;10706;49.036;12.112;2023-03-03T07:51:38;34.17;;;12.50;;
21095;SDS011;10706;49.036;12.112;2023-03-03T07:54:16;37.23;;;13.47;;
21095;SDS011;10706;49.036;12.112;2023-03-03T07:56:52;28.30;;;11.60;;
21095;SDS011;10706;49.036;12.112;2023-03-03T08:03:07;40.30;;;15.53;;
21095;SDS011;10706;49.036;12.112;2023-03-03T08:05:42;53.47;;;24.17;;
21095;SDS011;10706;49.036;12.112;2023-03-03T08:10:47;38.70;;;16.70;;
21095;SDS011;10706;49.036;12.112;2023-03-03T08:21:16;36.17;;;13.90;;
21095;SDS011;10706;49.036;12.112;2023-03-03T08:23:49;35.33;;;13.47;;
21095;SDS011;10706;49.036;12.112;2023-03-03T08:26:22;42.87;;;14.23;;
21095;SDS011;10706;49.036;12.112;2023-03-03T08:29:03;30.43;;;13.93;;
21095;SDS011;10706;49.036;12.112;2023-03-03T08:31:29;33.27;;;14.57;;
21095;SDS011;10706;49.036;12.112;2023-03-03T08:33:56;34.63;;;13.67;;
21095;SDS011;10706;49.036;12.112;2023-03-03T08:36:22;33.03;;;14.60;;
21095;SDS011;10706;49.036;12.112;2023-03-03T08:38:48;36.23;;;15.33;;
21095;SDS011;10706;49.036;12.112;2023-03-03T08:41:14;30.60;;;13.13;;
21095;SDS011;10706;49.036;12.112;2023-03-03T08:43:40;34.10;;;14.10;;
21095;SDS011;10706;49.036;12.112;2023-03-03T08:46:07;35.13;;;15.07;;
21095;SDS011;10706;49.036;12.112;2023-03-03T08:48:34;35.63;;;13.80;;
21095;SDS011;10706;49.036;12.112;2023-03-03T08:51:00;37.67;;;13.40;;
21095;SDS011;10706;49.036;12.112;2023-03-03T08:53:26;29.97;;;13.70;;
21095;SDS011;10706;49.036;12.112;2023-03-03T08:55:52;34.20;;;14.87;;
21095;SDS011;10706;49.036;12.112;2023-03-03T08:58:19;35.10;;;15.40;;
21095;SDS011;10706;49.036;12.112;2023-03-03T09:00:45;73.47;;;29.67;;
21095;SDS011;10706;49.036;12.112;2023-03-03T09:03:11;73.53;;;34.57;;
21095;SDS011;10706;49.036;12.112;2023-03-03T09:05:38;39.83;;;19.97;;
21095;SDS011;10706;49.036;12.112;2023-03-03T09:08:05;37.63;;;17.67;;
21095;SDS011;10706;49.036;12.112;2023-03-03T09:10:32;33.73;;;15.63;;
21095;SDS011;10706;49.036;12.112;2023-03-03T09:13:02;35.90;;;13.43;;
21095;SDS011;10706;49.036;12.112;2023-03-03T09:15:40;33.47;;;13.90;;
21095;SDS011;10706;49.036;12.112;2023-03-03T09:18:13;35.03;;;13.80;;
21095;SDS011;10706;49.036;12.112;2023-03-03T09:20:52;37.70;;;13.60;;
21095;SDS011;10706;49.036;12.112;2023-03-03T09:23:26;36.47;;;15.70;;
21095;SDS011;10706;49.036;12.112;2023-03-03T09:32:07;34.80;;;14.43;;
21095;SDS011;10706;49.036;12.112;2023-03-03T09:38:24;44.10;;;17.20;;
21095;SDS011;10706;49.036;12.112;2023-03-03T10:01:26;40.63;;;15.77;;
21095;SDS011;10706;49.036;12.112;2023-03-03T10:07:14;39.07;;;15.17;;
21095;SDS011;10706;49.036;12.112;2023-03-03T10:18:57;38.70;;;17.00;;
21095;SDS011;10706;49.036;12.112;2023-03-03T10:24:26;38.70;;;14.20;;
21095;SDS011;10706;49.036;12.112;2023-03-03T11:00:44;35.47;;;14.13;;
21095;SDS011;10706;49.036;12.112;2023-03-03T11:07:21;31.20;;;15.10;;
21095;SDS011;10706;49.036;12.112;2023-03-03T11:24:50;34.10;;;14.70;;
21095;SDS011;10706;49.036;12.112;2023-03-03T11:30:41;36.93;;;15.70;;
21095;SDS011;10706;49.036;12.112;2023-03-03T11:36:36;35.90;;;14.87;;
21095;SDS011;10706;49.036;12.112;2023-03-03T11:39:10;30.53;;;14.53;;
21095;SDS011;10706;49.036;12.112;2023-03-03T11:49:24;31.97;;;13.90;;
21095;SDS011;10706;49.036;12.112;2023-03-03T11:52:26;32.67;;;14.43;;
21095;SDS011;10706;49.036;12.112;2023-03-03T12:00:50;32.40;;;13.97;;
21095;SDS011;10706;49.036;12.112;2023-03-03T12:03:28;31.90;;;14.73;;
21095;SDS011;10706;49.036;12.112;2023-03-03T12:09:12;63.13;;;29.47;;
21095;SDS011;10706;49.036;12.112;2023-03-03T12:12:05;33.20;;;14.90;;
21095;SDS011;10706;49.036;12.112;2023-03-03T12:23:51;37.50;;;14.23;;
21095;SDS011;10706;49.036;12.112;2023-03-03T12:26:48;30.00;;;13.97;;
21095;SDS011;10706;49.036;12.112;2023-03-03T12:29:47;28.23;;;12.55;;
21095;SDS011;10706;49.036;12.112;2023-03-03T12:36:04;28.60;;;13.90;;
21095;SDS011;10706;49.036;12.112;2023-03-03T12:39:21;31.67;;;13.10;;
21095;SDS011;10706;49.036;12.112;2023-03-03T12:42:12;32.35;;;13.35;;
21095;SDS011;10706;49.036;12.112;2023-03-03T12:44:50;27.80;;;13.07;;
21095;SDS011;10706;49.036;12.112;2023-03-03T12:53:35;27.38;;;12.10;;
21095;SDS011;10706;49.036;12.112;2023-03-03T12:56:39;25.55;;;12.18;;
21095;SDS011;10706;49.036;12.112;2023-03-03T12:59:41;32.85;;;11.95;;
21095;SDS011;10706;49.036;12.112;2023-03-03T13:16:57;27.83;;;13.38;;
21095;SDS011;10706;49.036;12.112;2023-03-03T13:19:51;27.20;;;12.43;;
21095;SDS011;10706;49.036;12.112;2023-03-03T13:22:30;26.33;;;11.73;;
21095;SDS011;10706;49.036;12.112;2023-03-03T13:27:54;25.80;;;12.43;;
21095;SDS011;10706;49.036;12.112;2023-03-03T13:30:29;30.63;;;12.52;;
21095;SDS011;10706;49.036;12.112;2023-03-03T13:33:06;24.42;;;11.63;;
21095;SDS011;10706;49.036;12.112;2023-03-03T13:35:53;31.27;;;12.57;;
21095;SDS011;10706;49.036;12.112;2023-03-03T13:38:31;25.05;;;11.82;;
21095;SDS011;10706;49.036;12.112;2023-03-03T13:41:25;28.63;;;12.13;;
21095;SDS011;10706;49.036;12.112;2023-03-03T13:44:21;27.30;;;12.82;;
21095;SDS011;10706;49.036;12.112;2023-03-03T13:52:23;26.15;;;12.38;;
21095;SDS011;10706;49.036;12.112;2023-03-03T13:58:04;26.48;;;11.50;;
21095;SDS011;10706;49.036;12.112;2023-03-03T14:06:54;26.33;;;11.52;;
21095;SDS011;10706;49.036;12.112;2023-03-03T14:12:50;25.25;;;10.85;;
21095;SDS011;10706;49.036;12.112;2023-03-03T14:19:02;26.27;;;12.93;;
21095;SDS011;10706;49.036;12.112;2023-03-03T14:21:39;24.45;;;11.38;;
21095;SDS011;10706;49.036;12.112;2023-03-03T14:24:17;26.23;;;12.00;;
21095;SDS011;10706;49.036;12.112;2023-03-03T14:26:50;25.33;;;12.38;;
21095;SDS011;10706;49.036;12.112;2023-03-03T14:31:47;28.40;;;11.98;;
21095;SDS011;10706;49.036;12.112;2023-03-03T14:34:23;32.60;;;12.82;;
21095;SDS011;10706;49.036;12.112;2023-03-03T14:50:42;21.85;;;11.05;;
21095;SDS011;10706;49.036;12.112;2023-03-03T14:53:41;30.17;;;12.30;;
21095;SDS011;10706;49.036;12.112;2023-03-03T14:56:14;27.17;;;11.05;;
21095;SDS011;10706;49.036;12.112;2023-03-03T14:59:19;23.52;;;11.55;;
21095;SDS011;10706;49.036;12.112;2023-03-03T15:04:40;21.25;;;10.27;;
21095;SDS011;10706;49.036;12.112;2023-03-03T15:09:57;26.27;;;10.98;;
21095;SDS011;10706;49.036;12.112;2023-03-03T15:12:24;25.00;;;11.45;;
21095;SDS011;10706;49.036;12.112;2023-03-03T15:26:04;24.17;;;10.73;;
21095;SDS011;10706;49.036;12.112;2023-03-03T15:29:03;22.63;;;10.00;;
21095;SDS011;10706;49.036;12.112;2023-03-03T16:01:35;27.02;;;10.18;;
21095;SDS011;10706;49.036;12.112;2023-03-03T16:04:17;26.58;;;10.05;;
21095;SDS011;10706;49.036;12.112;2023-03-03T16:09:51;23.42;;;10.23;;
21095;SDS011;10706;49.036;12.112;2023-03-03T16:18:27;25.60;;;10.18;;
21095;SDS011;10706;49.036;12.112;2023-03-03T16:24:18;27.63;;;10.02;;
21095;SDS011;10706;49.036;12.112;2023-03-03T16:30:37;31.60;;;11.02;;
21095;SDS011;10706;49.036;12.112;2023-03-03T16:33:10;25.38;;;10.77;;
21095;SDS011;10706;49.036;12.112;2023-03-03T16:36:12;25.73;;;10.82;;
21095;SDS011;10706;49.036;12.112;2023-03-03T16:41:30;34.47;;;13.98;;
21095;SDS011;10706;49.036;12.112;2023-03-03T16:44:29;26.48;;;11.57;;
21095;SDS011;10706;49.036;12.112;2023-03-03T16:56:23;30.45;;;12.68;;
21095;SDS011;10706;49.036;12.112;2023-03-03T16:59:15;24.55;;;9.85;;
21095;SDS011;10706;49.036;12.112;2023-03-03T17:02:17;25.43;;;11.17;;
21095;SDS011;10706;49.036;12.112;2023-03-03T17:08:11;30.43;;;11.70;;
21095;SDS011;10706;49.036;12.112;2023-03-03T17:17:31;39.40;;;18.63;;
21095;SDS011;10706;49.036;12.112;2023-03-03T17:20:10;69.87;;;29.03;;
21095;SDS011;10706;49.036;12.112;2023-03-03T17:26:45;34.13;;;14.67;;
21095;SDS011;10706;49.036;12.112;2023-03-03T17:35:45;27.27;;;11.13;;
21095;SDS011;10706;49.036;12.112;2023-03-03T17:41:41;25.90;;;11.13;;
21095;SDS011;10706;49.036;12.112;2023-03-03T17:47:33;24.30;;;10.57;;
21095;SDS011;10706;49.036;12.112;2023-03-03T17:50:25;24.87;;;10.87;;
21095;SDS011;10706;49.036;12.112;2023-03-03T18:05:16;32.50;;;11.33;;
21095;SDS011;10706;49.036;12.112;2023-03-03T18:11:31;28.60;;;10.63;;
21095;SDS011;10706;49.036;12.112;2023-03-03T18:15:08;27.63;;;10.63;;
21095;SDS011;10706;49.036;12.112;2023-03-03T18:18:04;25.60;;;11.07;;
21095;SDS011;10706;49.036;12.112;2023-03-03T18:21:13;26.60;;;11.10;;
21095;SDS011;10706;49.036;12.112;2023-03-03T18:23:47;30.60;;;11.27;;
21095;SDS011;10706;49.036;12.112;2023-03-03T18:31:47;30.57;;;12.00;;
21095;SDS011;10706;49.036;12.112;2023-03-03T18:36:57;38.77;;;15.33;;
21095;SDS011;10706;49.036;12.112;2023-03-03T18:42:31;31.03;;;11.10;;
21095;SDS011;10706;49.036;12.112;2023-03-03T18:50:38;28.67;;;11.03;;
21095;SDS011;10706;49.036;12.112;2023-03-03T18:55:46;31.67;;;11.63;;
21095;SDS011;10706;49.036;12.112;2023-03-03T18:58:33;28.57;;;12.63;;
21095;SDS011;10706;49.036;12.112;2023-03-03T19:09:08;39.83;;;15.30;;
21095;SDS011;10706;49.036;12.112;2023-03-03T19:11:48;35.87;;;14.63;;
21095;SDS011;10706;49.036;12.112;2023-03-03T19:16:53;39.50;;;17.20;;
21095;SDS011;10706;49.036;12.112;2023-03-03T19:19:24;38.93;;;16.37;;
21095;SDS011;10706;49.036;12.112;2023-03-03T19:25:12;31.80;;;12.87;;
21095;SDS011;10706;49.036;12.112;2023-03-03T19:31:11;26.03;;;11.30;;
21095;SDS011;10706;49.036;12.112;2023-03-03T19:33:49;26.83;;;10.80;;
21095;SDS011;10706;49.036;12.112;2023-03-03T19:42:20;30.10;;;11.90;;
21095;SDS011;10706;49.036;12.112;2023-03-03T19:45:32;25.77;;;11.57;;
21095;SDS011;10706;49.036;12.112;2023-03-03T19:52:08;30.13;;;12.77;;
21095;SDS011;10706;49.036;12.112;2023-03-03T19:54:46;31.20;;;13.60;;
21095;SDS011;10706;49.036;12.112;2023-03-03T20:00:02;25.30;;;11.50;;
21095;SDS011;10706;49.036;12.112;2023-03-03T20:05:38;29.73;;;10.47;;
21095;SDS011;10706;49.036;12.112;2023-03-03T20:08:34;27.30;;;9.50;;
21095;SDS011;10706;49.036;12.112;2023-03-03T20:11:39;29.03;;;11.40;;
21095;SDS011;10706;49.036;12.112;2023-03-03T20:14:47;27.70;;;10.53;;
21095;SDS011;10706;49.036;12.112;2023-03-03T20:17:36;36.53;;;12.27;;
21095;SDS011;10706;49.036;12.112;2023-03-03T20:26:20;25.43;;;9.77;;
21095;SDS011;10706;49.036;12.112;2023-03-03T20:39:37;23.47;;;8.10;;
21095;SDS011;10706;49.036;12.112;2023-03-03T20:48:21;24.53;;;8.30;;
21095;SDS011;10706;49.036;12.112;2023-03-03T20:53:41;23.73;;;7.50;;
21095;SDS011;10706;49.036;12.112;2023-03-03T21:04:43;28.30;;;9.73;;
21095;SDS011;10706;49.036;12.112;2023-03-03T21:07:12;22.73;;;8.40;;
21095;SDS011;10706;49.036;12.112;2023-03-03T21:09:49;22.70;;;7.37;;
21095;SDS011;10706;49.036;12.112;2023-03-03T21:12:32;22.57;;;7.23;;
21095;SDS011;10706;49.036;12.112;2023-03-03T21:15:03;25.23;;;7.63;;
21095;SDS011;10706;49.036;12.112;2023-03-03T21:17:44;19.77;;;6.97;;
21095;SDS011;10706;49.036;12.112;2023-03-03T21:22:44;18.77;;;7.17;;
21095;SDS011;10706;49.036;12.112;2023-03-03T21:28:32;19.00;;;6.07;;
21095;SDS011;10706;49.036;12.112;2023-03-03T21:30:59;18.03;;;6.03;;
21095;SDS011;10706;49.036;12.112;2023-03-03T21:33:40;14.97;;;6.00;;
21095;SDS011;10706;49.036;12.112;2023-03-03T21:36:07;14.87;;;5.70;;
21095;SDS011;10706;49.036;12.112;2023-03-03T21:38:35;18.93;;;5.60;;
21095;SDS011;10706;49.036;12.112;2023-03-03T21:41:03;15.70;;;5.37;;
21095;SDS011;10706;49.036;12.112;2023-03-03T21:43:37;16.17;;;5.10;;
21095;SDS011;10706;49.036;12.112;2023-03-03T21:46:21;13.13;;;4.97;;
21095;SDS011;10706;49.036;12.112;2023-03-03T21:48:49;15.03;;;5.37;;
21095;SDS011;10706;49.036;12.112;2023-03-03T21:51:16;17.60;;;5.53;;
21095;SDS011;10706;49.036;12.112;2023-03-03T21:53:42;14.13;;;5.03;;
21095;SDS011;10706;49.036;12.112;2023-03-03T21:56:09;16.57;;;5.40;;
21095;SDS011;10706;49.036;12.112;2023-03-03T21:58:37;18.17;;;5.47;;
21095;SDS011;10706;49.036;12.112;2023-03-03T22:01:04;18.90;;;5.77;;
21095;SDS011;10706;49.036;12.112;2023-03-03T22:03:31;17.37;;;5.47;;
21095;SDS011;10706;49.036;12.112;2023-03-03T22:05:57;15.17;;;4.87;;
21095;SDS011;10706;49.036;12.112;2023-03-03T22:08:23;17.47;;;5.60;;
21095;SDS011;10706;49.036;12.112;2023-03-03T22:10:49;17.13;;;5.17;;
21095;SDS011;10706;49.036;12.112;2023-03-03T22:13:17;15.20;;;5.30;;
21095;SDS011;10706;49.036;12.112;2023-03-03T22:15:45;17.13;;;5.57;;
21095;SDS011;10706;49.036;12.112;2023-03-03T22:18:12;13.87;;;4.70;;
21095;SDS011;10706;49.036;12.112;2023-03-03T22:20:39;14.27;;;5.30;;
21095;SDS011;10706;49.036;12.112;2023-03-03T22:23:04;16.47;;;6.03;;
21095;SDS011;10706;49.036;12.112;2023-03-03T22:25:30;15.53;;;5.57;;
21095;SDS011;10706;49.036;12.112;2023-03-03T22:27:56;16.60;;;5.60;;
21095;SDS011;10706;49.036;12.112;2023-03-03T22:30:21;13.50;;;4.90;;
21095;SDS011;10706;49.036;12.112;2023-03-03T22:32:47;15.90;;;5.43;;
21095;SDS011;10706;49.036;12.112;2023-03-03T22:35:16;14.67;;;5.50;;
21095;SDS011;10706;49.036;12.112;2023-03-03T22:37:42;16.80;;;5.23;;
21095;SDS011;10706;49.036;12.112;2023-03-03T22:40:08;15.17;;;4.80;;
21095;SDS011;10706;49.036;12.112;2023-03-03T22:42:35;15.67;;;5.57;;